createdAt,value
2018-04-27T00:00:02.604Z,100551.08
2018-04-27T00:02:30.009Z,100547.31
2018-04-27T00:04:57.589Z,100542.94
2018-04-27T00:07:24.996Z,100547.47
2018-04-27T00:09:52.400Z,100540.76
2018-04-27T00:12:19.831Z,100538.17
2018-04-27T00:14:47.232Z,100543.85
2018-04-27T00:17:14.648Z,100534.64
2018-04-27T00:19:42.060Z,100538.17
2018-04-27T00:22:09.501Z,100536.02
2018-04-27T00:24:36.904Z,100534.05
2018-04-27T00:27:04.338Z,100533.39
2018-04-27T00:29:31.773Z,100529.09
2018-04-27T00:31:59.180Z,100527.11
2018-04-27T00:34:26.957Z,100523.54
2018-04-27T00:36:54.319Z,100516.62
2018-04-27T00:39:21.720Z,100515.64
2018-04-27T00:41:49.144Z,100518.94
2018-04-27T00:44:16.549Z,100511.20
2018-04-27T00:46:43.973Z,100509.81
2018-04-27T00:49:11.380Z,100511.73
2018-04-27T00:51:39.117Z,100510.25
2018-04-27T00:54:06.522Z,100512.33
2018-04-27T00:56:33.924Z,100506.08
2018-04-27T00:59:01.351Z,100512.14
2018-04-27T01:01:28.747Z,100497.83
2018-04-27T01:03:56.148Z,100506.42
2018-04-27T01:06:24.375Z,100505.16
2018-04-27T01:08:51.789Z,100503.14
2018-04-27T01:11:19.204Z,100498.88
2018-04-27T01:13:46.608Z,100498.12
2018-04-27T01:16:14.311Z,100504.03
2018-04-27T01:18:41.725Z,100502.77
2018-04-27T01:21:09.136Z,100507.50
2018-04-27T01:23:36.810Z,100500.09
2018-04-27T01:26:04.209Z,100502.78
2018-04-27T01:28:31.612Z,100501.48
2018-04-27T01:30:59.029Z,100501.58
2018-04-27T01:33:26.608Z,100508.90
2018-04-27T01:35:54.012Z,100507.38
2018-04-27T01:38:21.423Z,100504.59
2018-04-27T01:40:48.835Z,100508.81
2018-04-27T01:43:16.279Z,100504.95
2018-04-27T01:45:43.692Z,100508.77
2018-04-27T01:48:11.113Z,100508.06
2018-04-27T01:50:38.532Z,100499.11
2018-04-27T01:53:05.959Z,100495.91
2018-04-27T01:55:33.387Z,100492.61
2018-04-27T01:58:00.800Z,100495.20
2018-04-27T02:00:28.216Z,100489.27
2018-04-27T02:02:55.644Z,100484.84
2018-04-27T02:05:23.068Z,100491.39
2018-04-27T02:07:50.503Z,100492.27
2018-04-27T02:10:17.908Z,100489.44
2018-04-27T02:12:45.340Z,100489.94
2018-04-27T02:15:12.768Z,100482.93
2018-04-27T02:17:40.203Z,100482.30
2018-04-27T02:20:07.616Z,100482.97
2018-04-27T02:22:35.036Z,100476.11
2018-04-27T02:25:02.445Z,100470.87
2018-04-27T02:27:29.999Z,100479.70
2018-04-27T02:29:57.414Z,100478.98
2018-04-27T02:32:24.829Z,100477.06
2018-04-27T02:34:52.258Z,100477.16
2018-04-27T02:37:19.664Z,100470.64
2018-04-27T02:39:47.077Z,100469.99
2018-04-27T02:42:14.479Z,100467.19
2018-04-27T02:44:41.887Z,100463.95
2018-04-27T02:47:09.300Z,100459.92
2018-04-27T02:49:36.713Z,100459.77
2018-04-27T02:52:04.133Z,100458.59
2018-04-27T02:54:31.526Z,100455.59
2018-04-27T02:56:58.940Z,100456.50
2018-04-27T02:59:26.363Z,100451.11
2018-04-27T03:01:53.764Z,100458.13
2018-04-27T03:04:21.171Z,100449.49
2018-04-27T03:06:48.601Z,100442.33
2018-04-27T03:09:16.014Z,100442.39
2018-04-27T03:11:43.417Z,100446.34
2018-04-27T03:14:10.853Z,100444.91
2018-04-27T03:16:38.260Z,100438.05
2018-04-27T03:19:05.671Z,100436.28
2018-04-27T03:21:33.112Z,100438.27
2018-04-27T03:24:00.679Z,100435.38
2018-04-27T03:26:27.945Z,100439.95
2018-04-27T03:28:55.348Z,100433.34
2018-04-27T03:31:23.016Z,100434.38
2018-04-27T03:33:50.433Z,100427.70
2018-04-27T03:36:17.837Z,100430.20
2018-04-27T03:38:45.254Z,100430.77
2018-04-27T03:41:12.677Z,100423.91
2018-04-27T03:43:40.475Z,100425.84
2018-04-27T03:46:07.897Z,100423.19
2018-04-27T03:48:35.307Z,100420.61
2018-04-27T03:51:02.737Z,100424.41
2018-04-27T03:53:30.157Z,100420.13
2018-04-27T03:55:57.568Z,100416.42
2018-04-27T03:58:25.237Z,100424.72
2018-04-27T04:01:04.889Z,100415.52
2018-04-27T04:06:35.799Z,100417.05
2018-04-27T04:09:03.467Z,100411.56
2018-04-27T04:11:30.868Z,100413.95
2018-04-27T04:13:58.276Z,100409.53
2018-04-27T04:16:25.699Z,100403.86
2018-04-27T04:18:53.115Z,100404.70
2018-04-27T04:21:20.529Z,100405.58
2018-04-27T04:23:48.100Z,100401.09
2018-04-27T04:26:15.516Z,100402.47
2018-04-27T04:28:42.940Z,100407.05
2018-04-27T04:31:10.386Z,100415.36
2018-04-27T04:33:37.804Z,100408.56
2018-04-27T04:36:05.215Z,100406.08
2018-04-27T04:38:32.794Z,100400.09
2018-04-27T04:41:00.219Z,100397.41
2018-04-27T04:43:27.627Z,100405.69
2018-04-27T04:45:55.051Z,100405.92
2018-04-27T04:48:22.464Z,100407.66
2018-04-27T04:50:49.883Z,100409.14
2018-04-27T04:53:17.548Z,100415.80
2018-04-27T04:55:44.968Z,100402.27
2018-04-27T04:58:12.368Z,100412.34
2018-04-27T05:00:39.771Z,100415.06
2018-04-27T05:03:07.190Z,100413.33
2018-04-27T05:05:34.852Z,100414.47
2018-04-27T05:08:02.252Z,100417.17
2018-04-27T05:10:29.678Z,100424.23
2018-04-27T05:12:57.097Z,100417.95
2018-04-27T05:15:24.499Z,100413.46
2018-04-27T05:17:51.930Z,100415.32
2018-04-27T05:20:18.803Z,100417.45
2018-04-27T05:22:46.220Z,100413.63
2018-04-27T05:25:13.628Z,100413.16
2018-04-27T05:27:41.060Z,100417.53
2018-04-27T05:30:08.463Z,100404.94
2018-04-27T05:32:35.888Z,100409.42
2018-04-27T05:35:03.326Z,100409.36
2018-04-27T05:37:30.718Z,100404.97
2018-04-27T05:39:58.152Z,100403.29
2018-04-27T05:42:25.919Z,100398.29
2018-04-27T05:44:53.320Z,100392.94
2018-04-27T05:47:20.739Z,100388.53
2018-04-27T05:49:48.143Z,100388.72
2018-04-27T05:52:15.715Z,100380.58
2018-04-27T05:54:43.125Z,100380.36
2018-04-27T05:57:10.524Z,100373.14
2018-04-27T05:59:37.948Z,100365.69
2018-04-27T06:02:05.347Z,100365.28
2018-04-27T06:04:32.794Z,100361.11
2018-04-27T06:07:00.172Z,100357.32
2018-04-27T06:09:27.572Z,100357.10
2018-04-27T06:11:55.001Z,100354.70
2018-04-27T06:14:22.395Z,100358.81
2018-04-27T06:16:49.800Z,100356.05
2018-04-27T06:19:17.225Z,100355.17
2018-04-27T06:21:44.637Z,100356.60
2018-04-27T06:24:12.035Z,100348.22
2018-04-27T06:26:39.481Z,100350.22
2018-04-27T06:29:06.892Z,100353.79
2018-04-27T06:31:34.301Z,100344.09
2018-04-27T06:34:01.727Z,100346.23
2018-04-27T06:36:29.128Z,100343.16
2018-04-27T06:38:56.549Z,100337.39
2018-04-27T06:41:23.961Z,100324.33
2018-04-27T06:43:51.652Z,100323.41
2018-04-27T06:46:19.054Z,100319.56
2018-04-27T06:48:46.587Z,100331.57
2018-04-27T06:51:14.016Z,100330.85
2018-04-27T06:53:41.418Z,100326.16
2018-04-27T06:56:08.850Z,100318.55
2018-04-27T06:58:36.272Z,100312.73
2018-04-27T07:01:03.680Z,100315.34
2018-04-27T07:03:31.350Z,100319.44
2018-04-27T07:05:58.748Z,100317.71
2018-04-27T07:08:26.159Z,100320.47
2018-04-27T07:10:53.585Z,100319.95
2018-04-27T07:13:20.993Z,100318.78
2018-04-27T07:15:48.404Z,100320.33
2018-04-27T07:18:15.820Z,100316.48
2018-04-27T07:20:43.228Z,100324.50
2018-04-27T07:23:10.652Z,100319.66
2018-04-27T07:25:38.425Z,100316.29
2018-04-27T07:28:05.838Z,100315.67
2018-04-27T07:30:33.249Z,100310.89
2018-04-27T07:33:00.671Z,100315.03
2018-04-27T07:35:28.075Z,100314.64
2018-04-27T07:37:55.496Z,100316.38
2018-04-27T07:40:22.920Z,100317.59
2018-04-27T07:42:50.339Z,100311.64
2018-04-27T07:45:17.797Z,100315.45
2018-04-27T07:47:45.160Z,100308.10
2018-04-27T07:50:12.916Z,100312.46
2018-04-27T07:52:40.325Z,100303.94
2018-04-27T07:55:07.731Z,100305.78
2018-04-27T07:57:35.172Z,100301.03
2018-04-27T08:00:02.575Z,100301.21
2018-04-27T08:02:30.006Z,100296.58
2018-04-27T08:04:57.463Z,100299.14
2018-04-27T08:07:24.860Z,100301.58
2018-04-27T08:09:52.297Z,100303.89
2018-04-27T08:12:20.144Z,100301.19
2018-04-27T08:14:47.573Z,100301.71
2018-04-27T08:17:14.989Z,100302.71
2018-04-27T08:19:42.421Z,100299.23
2018-04-27T08:22:09.828Z,100300.86
2018-04-27T08:24:37.285Z,100299.84
2018-04-27T08:27:04.703Z,100294.52
2018-04-27T08:29:32.115Z,100289.84
2018-04-27T08:31:59.548Z,100284.89
2018-04-27T08:34:26.951Z,100286.97
2018-04-27T08:36:54.403Z,100284.90
2018-04-27T08:39:21.832Z,100278.49
2018-04-27T08:41:49.240Z,100278.31
2018-04-27T08:44:16.687Z,100276.72
2018-04-27T08:46:44.085Z,100272.38
2018-04-27T08:49:11.504Z,100276.89
2018-04-27T08:51:38.904Z,100271.22
2018-04-27T08:54:06.354Z,100267.13
2018-04-27T08:56:33.751Z,100260.52
2018-04-27T08:59:01.152Z,100258.93
2018-04-27T09:01:28.593Z,100264.25
2018-04-27T09:03:55.992Z,100264.23
2018-04-27T09:06:24.201Z,100260.87
2018-04-27T09:08:51.580Z,100259.19
2018-04-27T09:11:19.333Z,100248.34
2018-04-27T09:13:46.733Z,100248.48
2018-04-27T09:16:14.213Z,100246.69
2018-04-27T09:18:41.560Z,100254.28
2018-04-27T09:21:08.967Z,100252.88
2018-04-27T09:23:36.371Z,100249.11
2018-04-27T09:26:04.028Z,100253.69
2018-04-27T09:28:31.464Z,100251.78
2018-04-27T09:30:58.867Z,100254.75
2018-04-27T09:33:26.496Z,100242.23
2018-04-27T09:35:54.241Z,100248.52
2018-04-27T09:38:21.641Z,100254.36
2018-04-27T09:40:49.105Z,100253.53
2018-04-27T09:43:16.677Z,100247.05
2018-04-27T09:45:44.148Z,100252.09
2018-04-27T09:48:11.573Z,100243.53
2018-04-27T09:50:39.027Z,100246.21
2018-04-27T09:53:06.469Z,100246.02
2018-04-27T09:55:33.887Z,100241.48
2018-04-27T09:58:01.413Z,100235.73
2018-04-27T10:00:28.827Z,100229.41
2018-04-27T10:02:56.232Z,100229.44
2018-04-27T10:05:23.992Z,100229.92
2018-04-27T10:07:51.399Z,100222.77
2018-04-27T10:10:18.808Z,100216.78
2018-04-27T10:12:46.229Z,100213.78
2018-04-27T10:15:14.322Z,100198.23
2018-04-27T10:17:41.953Z,100203.00
2018-04-27T10:20:09.360Z,100190.59
2018-04-27T10:22:36.768Z,100182.66
2018-04-27T10:25:04.464Z,100182.87
2018-04-27T10:27:32.088Z,100179.48
2018-04-27T10:29:59.649Z,100180.59
2018-04-27T10:32:27.104Z,100177.45
2018-04-27T10:34:54.500Z,100174.42
2018-04-27T10:37:22.495Z,100176.19
2018-04-27T10:39:49.915Z,100175.89
2018-04-27T10:42:17.352Z,100179.63
2018-04-27T10:44:44.776Z,100165.92
2018-04-27T10:47:12.181Z,100166.72
2018-04-27T10:49:39.596Z,100173.08
2018-04-27T10:52:07.060Z,100166.25
2018-04-27T10:54:34.464Z,100158.81
2018-04-27T10:57:01.868Z,100150.09
2018-04-27T10:59:30.286Z,100145.75
2018-04-27T11:01:57.700Z,100141.34
2018-04-27T11:04:25.132Z,100138.15
2018-04-27T11:06:52.552Z,100137.04
2018-04-27T11:09:19.961Z,100137.95
2018-04-27T11:11:47.372Z,100148.78
2018-04-27T11:14:14.808Z,100131.96
2018-04-27T11:16:42.287Z,100128.54
2018-04-27T11:19:09.637Z,100111.20
2018-04-27T11:21:37.069Z,100112.77
2018-04-27T11:24:04.467Z,100118.03
2018-04-27T11:26:32.157Z,100105.06
2018-04-27T11:28:59.583Z,100100.57
2018-04-27T11:31:26.994Z,100110.88
2018-04-27T11:33:54.468Z,100105.83
2018-04-27T11:36:21.887Z,100098.97
2018-04-27T11:38:49.299Z,100092.82
2018-04-27T11:41:16.754Z,100100.79
2018-04-27T11:43:44.162Z,100086.13
2018-04-27T11:46:11.621Z,100075.16
2018-04-27T11:48:39.026Z,100078.62
2018-04-27T11:51:06.717Z,100080.98
2018-04-27T11:53:34.152Z,100080.48
2018-04-27T11:56:01.575Z,100067.47
2018-04-27T11:58:29.222Z,100063.00
2018-04-27T12:00:56.624Z,100059.75
2018-04-27T12:03:24.023Z,100046.80
2018-04-27T12:05:51.729Z,100059.38
2018-04-27T12:08:19.148Z,100060.22
2018-04-27T12:10:46.588Z,100054.19
2018-04-27T12:13:14.007Z,100062.50
2018-04-27T12:15:41.428Z,100051.03
2018-04-27T12:18:08.866Z,100044.61
2018-04-27T12:20:36.556Z,100045.16
2018-04-27T12:23:03.978Z,100042.89
2018-04-27T12:25:31.383Z,100041.90
2018-04-27T12:27:58.818Z,100036.32
2018-04-27T12:30:26.219Z,100037.34
2018-04-27T12:32:53.648Z,100035.01
2018-04-27T12:35:21.073Z,100039.11
2018-04-27T12:37:48.484Z,100025.07
2018-04-27T12:40:15.887Z,100014.81
2018-04-27T12:42:43.312Z,100021.45
2018-04-27T12:45:10.721Z,100015.92
2018-04-27T12:47:38.157Z,100008.52
2018-04-27T12:50:05.557Z,100007.21
2018-04-27T12:52:32.963Z,100012.00
2018-04-27T12:55:00.628Z,100002.70
2018-04-27T12:57:28.025Z,99993.41
2018-04-27T12:59:55.423Z,99996.51
2018-04-27T13:02:22.884Z,99991.32
2018-04-27T13:04:50.300Z,99990.03
2018-04-27T13:07:17.720Z,99978.64
2018-04-27T13:09:45.119Z,99970.89
2018-04-27T13:12:12.514Z,99957.30
2018-04-27T13:14:39.925Z,99949.48
2018-04-27T13:17:07.332Z,99944.97
2018-04-27T13:19:34.739Z,99939.06
2018-04-27T13:22:02.140Z,99929.02
2018-04-27T13:24:29.652Z,99930.14
2018-04-27T13:26:57.040Z,99923.99
2018-04-27T13:29:24.447Z,99925.13
2018-04-27T13:31:51.868Z,99915.11
2018-04-27T13:34:19.284Z,99917.33
2018-04-27T13:36:46.688Z,99920.58
2018-04-27T13:39:14.127Z,99901.55
2018-04-27T13:41:41.532Z,99902.64
2018-04-27T13:44:08.964Z,99894.10
2018-04-27T13:46:36.826Z,99895.39
2018-04-27T13:49:04.276Z,99885.59
2018-04-27T13:51:31.865Z,99894.80
2018-04-27T13:53:59.338Z,99882.58
2018-04-27T13:56:26.860Z,99873.61
2018-04-27T13:58:54.260Z,99882.74
2018-04-27T14:01:21.808Z,99881.61
2018-04-27T14:03:49.440Z,99875.63
2018-04-27T14:06:16.856Z,99872.18
2018-04-27T14:08:44.255Z,99878.72
2018-04-27T14:11:11.734Z,99868.09
2018-04-27T14:13:39.090Z,99865.00
2018-04-27T14:16:06.819Z,99856.22
2018-04-27T14:18:34.265Z,99852.15
2018-04-27T14:21:01.682Z,99849.44
2018-04-27T14:23:29.194Z,99847.56
2018-04-27T14:25:56.604Z,99846.52
2018-04-27T14:28:24.039Z,99842.02
2018-04-27T14:30:51.491Z,99843.81
2018-04-27T14:33:18.900Z,99837.03
2018-04-27T14:35:46.329Z,99838.63
2018-04-27T14:38:14.688Z,99840.33
2018-04-27T14:40:42.103Z,99837.80
2018-04-27T14:43:09.606Z,99838.84
2018-04-27T14:45:37.021Z,99835.32
2018-04-27T14:48:04.443Z,99837.51
2018-04-27T14:50:31.864Z,99822.77
2018-04-27T14:52:59.290Z,99823.20
2018-04-27T14:55:27.901Z,99821.27
2018-04-27T14:57:55.769Z,99818.58
2018-04-27T15:00:23.236Z,99808.27
2018-04-27T15:02:50.689Z,99803.65
2018-04-27T15:05:18.115Z,99811.19
2018-04-27T15:07:45.564Z,99804.73
2018-04-27T15:10:12.967Z,99797.95
2018-04-27T15:12:40.377Z,99794.33
2018-04-27T15:15:07.795Z,99797.44
2018-04-27T15:17:35.208Z,99790.70
2018-04-27T15:20:02.609Z,99799.18
2018-04-27T15:22:30.038Z,99797.73
2018-04-27T15:24:57.505Z,99798.39
2018-04-27T15:27:24.856Z,99796.77
2018-04-27T15:29:52.260Z,99799.73
2018-04-27T15:32:19.680Z,99790.23
2018-04-27T15:34:47.108Z,99785.34
2018-04-27T15:37:14.532Z,99782.09
2018-04-27T15:39:41.947Z,99780.44
2018-04-27T15:42:09.362Z,99778.48
2018-04-27T15:44:36.792Z,99772.17
2018-04-27T15:47:04.196Z,99767.88
2018-04-27T15:49:31.860Z,99760.03
2018-04-27T15:51:59.301Z,99768.04
2018-04-27T15:54:26.699Z,99764.64
2018-04-27T15:56:54.516Z,99772.34
2018-04-27T15:59:21.908Z,99774.13
2018-04-27T16:01:49.342Z,99767.26
2018-04-27T16:04:16.731Z,99766.47
2018-04-27T16:06:44.129Z,99759.89
2018-04-27T16:09:11.625Z,99758.17
2018-04-27T16:11:38.968Z,99751.95
2018-04-27T16:14:06.724Z,99756.57
2018-04-27T16:16:34.152Z,99752.09
2018-04-27T16:19:02.338Z,99755.70
2018-04-27T16:21:29.760Z,99741.02
2018-04-27T16:23:58.064Z,99742.62
2018-04-27T16:26:25.464Z,99741.02
2018-04-27T16:28:52.932Z,99738.31
2018-04-27T16:31:20.341Z,99738.72
2018-04-27T16:33:47.734Z,99735.00
2018-04-27T16:36:15.403Z,99732.90
2018-04-27T16:38:42.808Z,99739.83
2018-04-27T16:41:10.212Z,99729.70
2018-04-27T16:43:37.629Z,99722.38
2018-04-27T16:46:05.037Z,99727.28
2018-04-27T16:48:32.436Z,99729.11
2018-04-27T16:50:59.981Z,99734.92
2018-04-27T16:53:27.381Z,99726.42
2018-04-27T16:55:54.795Z,99729.09
2018-04-27T16:58:22.198Z,99726.84
2018-04-27T17:00:49.633Z,99737.89
2018-04-27T17:03:17.049Z,99736.22
2018-04-27T17:05:44.460Z,99725.59
2018-04-27T17:08:12.186Z,99711.41
2018-04-27T17:10:39.591Z,99704.45
2018-04-27T17:13:06.991Z,99721.16
2018-04-27T17:15:34.417Z,99717.58
2018-04-27T17:18:01.812Z,99720.39
2018-04-27T17:20:29.223Z,99721.42
2018-04-27T17:22:56.684Z,99727.98
2018-04-27T17:25:24.089Z,99721.84
2018-04-27T17:27:51.620Z,99719.68
2018-04-27T17:30:19.050Z,99716.12
2018-04-27T17:32:46.792Z,99720.52
2018-04-27T17:35:14.355Z,99719.36
2018-04-27T17:37:41.748Z,99720.92
2018-04-27T17:40:09.164Z,99720.53
2018-04-27T17:42:36.855Z,99726.50
2018-04-27T17:45:04.260Z,99729.11
2018-04-27T17:47:31.683Z,99732.69
2018-04-27T17:49:59.083Z,99734.28
2018-04-27T17:52:26.484Z,99730.27
2018-04-27T17:54:53.885Z,99729.08
2018-04-27T17:57:21.284Z,99722.74
2018-04-27T17:59:48.708Z,99725.33
2018-04-27T18:02:16.112Z,99726.55
2018-04-27T18:04:43.551Z,99718.44
2018-04-27T18:07:10.971Z,99715.68
2018-04-27T18:09:38.394Z,99710.76
2018-04-27T18:12:06.055Z,99713.02
2018-04-27T18:14:33.299Z,99710.08
2018-04-27T18:17:00.696Z,99708.95
2018-04-27T18:19:28.120Z,99707.58
2018-04-27T18:21:55.567Z,99704.81
2018-04-27T18:24:23.023Z,99702.89
2018-04-27T18:26:50.412Z,99707.89
2018-04-27T18:29:17.858Z,99711.52
2018-04-27T18:31:45.269Z,99706.98
2018-04-27T18:34:12.698Z,99710.39
2018-04-27T18:36:40.097Z,99709.20
2018-04-27T18:39:07.545Z,99702.88
2018-04-27T18:41:34.973Z,99713.03
2018-04-27T18:44:02.401Z,99707.73
2018-04-27T18:46:29.810Z,99703.37
2018-04-27T18:48:57.476Z,99705.00
2018-04-27T18:51:24.896Z,99706.60
2018-04-27T18:53:52.352Z,99708.03
2018-04-27T18:56:22.113Z,99716.97
2018-04-27T18:58:52.933Z,99711.42
2018-04-27T19:01:20.417Z,99712.66
2018-04-27T19:03:47.763Z,99717.63
2018-04-27T19:06:15.172Z,99716.06
2018-04-27T19:08:42.575Z,99720.61
2018-04-27T19:11:10.274Z,99721.64
2018-04-27T19:13:37.727Z,99726.20
2018-04-27T19:16:05.125Z,99728.16
2018-04-27T19:18:32.540Z,99721.61
2018-04-27T19:20:59.932Z,99728.34
2018-04-27T19:23:30.336Z,99727.96
2018-04-27T19:25:58.459Z,99735.28
2018-04-27T19:28:30.176Z,99735.47
2018-04-27T19:30:58.520Z,99735.85
2018-04-27T19:33:25.944Z,99734.47
2018-04-27T19:35:53.392Z,99735.05
2018-04-27T19:38:20.816Z,99734.05
2018-04-27T19:40:48.253Z,99738.99
2018-04-27T19:43:15.684Z,99734.44
2018-04-27T19:45:43.110Z,99733.63
2018-04-27T19:48:10.588Z,99734.98
2018-04-27T19:50:38.035Z,99737.93
2018-04-27T19:53:05.481Z,99731.58
2018-04-27T19:55:32.902Z,99737.91
2018-04-27T19:58:00.305Z,99736.70
2018-04-27T20:00:28.640Z,99742.60
2018-04-27T20:02:56.059Z,99737.78
2018-04-27T20:05:23.499Z,99742.70
2018-04-27T20:07:51.211Z,99744.25
2018-04-27T20:10:19.395Z,99740.07
2018-04-27T20:12:46.796Z,99734.88
2018-04-27T20:15:14.215Z,99740.38
2018-04-27T20:17:44.323Z,99737.77
2018-04-27T20:20:29.571Z,99735.53
2018-04-27T20:22:56.972Z,99734.05
2018-04-27T20:25:24.420Z,99738.33
2018-04-27T20:27:51.903Z,99733.70
2018-04-27T20:30:19.300Z,99727.73
2018-04-27T20:32:47.292Z,99721.16
2018-04-27T20:35:15.587Z,99722.86
2018-04-27T20:37:43.044Z,99719.62
2018-04-27T20:40:12.254Z,99719.11
2018-04-27T20:42:44.335Z,99717.42
2018-04-27T20:45:20.874Z,99714.97
2018-04-27T20:47:48.605Z,99716.05
2018-04-27T20:50:16.060Z,99719.12
2018-04-27T20:52:43.512Z,99716.70
2018-04-27T20:55:16.875Z,99714.30
2018-04-27T20:57:44.828Z,99704.39
2018-04-27T21:00:12.307Z,99706.09
2018-04-27T21:02:43.565Z,99702.30
2018-04-27T21:05:11.022Z,99704.61
2018-04-27T21:07:38.482Z,99699.03
2018-04-27T21:10:06.053Z,99692.66
2018-04-27T21:12:35.108Z,99694.20
2018-04-27T21:15:06.418Z,99692.55
2018-04-27T21:17:34.151Z,99687.37
2018-04-27T21:20:01.614Z,99687.14
2018-04-27T21:22:29.351Z,99685.70
2018-04-27T21:24:56.811Z,99680.13
2018-04-27T21:27:24.251Z,99678.91
2018-04-27T21:29:51.776Z,99677.26
2018-04-27T21:32:19.233Z,99672.09
2018-04-27T21:34:46.763Z,99668.51
2018-04-27T21:37:14.199Z,99667.66
2018-04-27T21:39:41.630Z,99663.53
2018-04-27T21:42:20.892Z,99657.02
2018-04-27T21:44:57.397Z,99661.73
2018-04-27T21:47:29.214Z,99661.49
2018-04-27T21:49:58.591Z,99662.83
2018-04-27T21:52:31.872Z,99655.70
2018-04-27T21:54:59.782Z,99661.16
2018-04-27T21:57:35.491Z,99659.73
2018-04-27T22:00:05.677Z,99661.45
2018-04-27T22:02:36.101Z,99659.05
2018-04-27T22:08:00.265Z,99652.78
2018-04-27T22:10:28.062Z,99653.41
2018-04-27T22:12:56.263Z,99648.70
2018-04-27T22:15:24.244Z,99649.05
2018-04-27T22:17:51.659Z,99650.14
2018-04-27T22:20:20.536Z,99657.38
2018-04-27T22:22:47.957Z,99654.61
2018-04-27T22:25:27.783Z,99658.53
2018-04-27T22:28:03.848Z,99648.46
2018-04-27T22:30:34.238Z,99660.88
2018-04-27T22:36:19.507Z,99653.33
2018-04-27T22:41:59.220Z,99643.98
2018-04-27T22:44:27.455Z,99645.81
2018-04-27T22:46:54.860Z,99639.33
2018-04-27T22:49:22.287Z,99642.53
2018-04-27T22:51:49.704Z,99634.44
2018-04-27T22:57:16.871Z,99641.34
2018-04-27T22:59:45.731Z,99644.13
2018-04-27T23:02:19.737Z,99644.47
2018-04-27T23:04:49.719Z,99646.76
2018-04-27T23:07:23.766Z,99642.42
2018-04-27T23:09:54.685Z,99643.80
2018-04-27T23:12:22.095Z,99646.56
2018-04-27T23:14:50.395Z,99643.63
2018-04-27T23:17:17.807Z,99639.09
2018-04-27T23:19:50.821Z,99641.00
2018-04-27T23:22:30.260Z,99644.77
2018-04-27T23:27:58.221Z,99639.86
2018-04-27T23:30:25.655Z,99648.22
2018-04-27T23:32:53.069Z,99641.83
2018-04-27T23:35:21.161Z,99648.27
2018-04-27T23:37:48.574Z,99640.78
2018-04-27T23:40:16.037Z,99634.83
2018-04-27T23:42:44.265Z,99634.23
2018-04-27T23:45:11.684Z,99635.79
2018-04-27T23:47:39.355Z,99643.45
2018-04-27T23:50:06.768Z,99644.05
2018-04-27T23:52:34.190Z,99637.16
2018-04-27T23:55:01.620Z,99639.52
2018-04-27T23:57:31.572Z,99643.08
